Terminal Aerodrome Forecast
Issued by NWS

Home | Current Version | Previous Version | Text Only | Print | Product List | Glossary On
Versions: 1 2 3 4 5 6 7 8 9 10 11 12 13 14 15
000
FTUS42 KMLB 191132
TAFTIX
TAF
KTIX 191132Z 1912/2012 01010KT P6SM VCSH FEW025 BKN060
     FM191400 04014G20KT P6SM VCSH SCT030 BKN050
     FM192000 05015G21KT P6SM VCSH SCT040 BKN100
     FM200000 04013KT P6SM FEW040 SCT250=

USA.gov is the U.S. government's official web portal to all federal, state and local government web resources and services.